Terminal Aerodrome Forecast
Issued by NWS

Home | Current Version | Previous Version | Text Only | Print | Product List | Glossary On
Versions: 1 2 3 4 5 6 7 8 9 10 11 12 13 14 15 16 17 18 19 20 21 22 23 24
000
FTUS41 KBUF 282327
TAFJHW
TAF
KJHW 282327Z 2900/2924 21008KT P6SM VCSH OVC090
     FM290500 19004KT 6SM -SHRA OVC070
     FM290800 VRB03KT 6SM -SHRA OVC025
     FM290900 VRB03KT 6SM -SHRA OVC003
     FM291100 VRB03KT P6SM VCSH OVC003
     FM291600 33005KT P6SM VCSH OVC012
     FM292200 36006KT P6SM VCSH OVC020
      AMD LTD TO CLD VIS AND WIND=

USA.gov is the U.S. government's official web portal to all federal, state and local government web resources and services.